sensor_id;sensor_type;location;lat;lon;timestamp;pressure;altitude;pressure_sealevel;temperature;humidity
46714;BME280;32445;51.376;10.874;2023-04-20T00:00:53;99678.00;;;9.60;47.14
46714;BME280;32445;51.376;10.874;2023-04-20T00:03:53;99675.44;;;9.59;46.55
46714;BME280;32445;51.376;10.874;2023-04-20T00:06:54;99671.97;;;9.58;46.56
46714;BME280;32445;51.376;10.874;2023-04-20T00:09:56;99679.75;;;9.58;46.97
46714;BME280;32445;51.376;10.874;2023-04-20T00:12:56;99673.72;;;9.58;46.72
46714;BME280;32445;51.376;10.874;2023-04-20T00:15:56;99668.53;;;9.58;47.37
46714;BME280;32445;51.376;10.874;2023-04-20T00:18:58;99669.38;;;9.58;46.81
46714;BME280;32445;51.376;10.874;2023-04-20T00:21:59;99658.16;;;9.58;46.67
46714;BME280;32445;51.376;10.874;2023-04-20T00:24:59;99660.78;;;9.56;47.24
46714;BME280;32445;51.376;10.874;2023-04-20T00:27:59;99653.00;;;9.56;47.17
46714;BME280;32445;51.376;10.874;2023-04-20T00:31:00;99650.44;;;9.56;47.03
46714;BME280;32445;51.376;10.874;2023-04-20T00:34:00;99651.28;;;9.55;46.50
46714;BME280;32445;51.376;10.874;2023-04-20T00:37:00;99651.28;;;9.55;46.58
46714;BME280;32445;51.376;10.874;2023-04-20T00:40:01;99648.72;;;9.55;47.24
46714;BME280;32445;51.376;10.874;2023-04-20T00:43:11;99641.88;;;9.51;47.74
46714;BME280;32445;51.376;10.874;2023-04-20T00:46:11;99637.56;;;9.51;47.34
46714;BME280;32445;51.376;10.874;2023-04-20T00:49:12;99651.41;;;9.50;47.36
46714;BME280;32445;51.376;10.874;2023-04-20T00:52:13;99643.63;;;9.50;47.45
46714;BME280;32445;51.376;10.874;2023-04-20T00:55:13;99645.38;;;9.50;47.39
46714;BME280;32445;51.376;10.874;2023-04-20T00:58:13;99639.31;;;9.49;46.93
46714;BME280;32445;51.376;10.874;2023-04-20T01:01:14;99630.72;;;9.47;47.47
46714;BME280;32445;51.376;10.874;2023-04-20T01:04:16;99636.78;;;9.46;47.50
46714;BME280;32445;51.376;10.874;2023-04-20T01:07:17;99631.59;;;9.46;47.30
46714;BME280;32445;51.376;10.874;2023-04-20T01:10:18;99618.69;;;9.45;47.70
46714;BME280;32445;51.376;10.874;2023-04-20T01:13:18;99618.69;;;9.45;47.40
46714;BME280;32445;51.376;10.874;2023-04-20T01:16:18;99625.63;;;9.44;47.54
46714;BME280;32445;51.376;10.874;2023-04-20T01:19:19;99621.31;;;9.43;47.80
46714;BME280;32445;51.376;10.874;2023-04-20T01:22:21;99623.94;;;9.42;47.27
46714;BME280;32445;51.376;10.874;2023-04-20T01:25:21;99613.56;;;9.42;47.51
46714;BME280;32445;51.376;10.874;2023-04-20T01:28:22;99610.09;;;9.41;47.13
46714;BME280;32445;51.376;10.874;2023-04-20T01:31:23;99611.00;;;9.40;47.44
46714;BME280;32445;51.376;10.874;2023-04-20T01:34:23;99605.88;;;9.39;47.32
46714;BME280;32445;51.376;10.874;2023-04-20T01:37:24;99611.88;;;9.39;47.51
46714;BME280;32445;51.376;10.874;2023-04-20T01:40:24;99608.44;;;9.39;47.76
46714;BME280;32445;51.376;10.874;2023-04-20T01:43:25;99606.72;;;9.38;47.38
46714;BME280;32445;51.376;10.874;2023-04-20T01:46:25;99598.97;;;9.38;47.44
46714;BME280;32445;51.376;10.874;2023-04-20T01:49:25;99598.13;;;9.35;47.54
46714;BME280;32445;51.376;10.874;2023-04-20T01:52:26;99599.03;;;9.34;47.34
46714;BME280;32445;51.376;10.874;2023-04-20T01:55:26;99599.03;;;9.34;47.38
46714;BME280;32445;51.376;10.874;2023-04-20T01:58:26;99599.03;;;9.34;47.58
46714;BME280;32445;51.376;10.874;2023-04-20T02:01:27;99594.75;;;9.32;47.81
46714;BME280;32445;51.376;10.874;2023-04-20T02:04:28;99596.50;;;9.31;47.56
46714;BME280;32445;51.376;10.874;2023-04-20T02:07:28;99601.72;;;9.30;47.44
46714;BME280;32445;51.376;10.874;2023-04-20T02:10:28;99601.72;;;9.30;48.00
46714;BME280;32445;51.376;10.874;2023-04-20T02:13:29;99593.06;;;9.29;47.74
46714;BME280;32445;51.376;10.874;2023-04-20T02:16:29;99587.06;;;9.27;47.99
46714;BME280;32445;51.376;10.874;2023-04-20T02:19:30;99596.56;;;9.27;47.98
46714;BME280;32445;51.376;10.874;2023-04-20T02:22:31;99598.34;;;9.25;47.90
46714;BME280;32445;51.376;10.874;2023-04-20T02:25:34;99594.06;;;9.22;48.07
46714;BME280;32445;51.376;10.874;2023-04-20T02:28:34;99594.94;;;9.21;47.85
46714;BME280;32445;51.376;10.874;2023-04-20T02:31:35;99595.84;;;9.20;48.30
46714;BME280;32445;51.376;10.874;2023-04-20T02:34:35;99594.16;;;9.17;48.39
46714;BME280;32445;51.376;10.874;2023-04-20T02:37:35;99591.59;;;9.16;47.93
46714;BME280;32445;51.376;10.874;2023-04-20T02:40:36;99590.72;;;9.15;47.86
46714;BME280;32445;51.376;10.874;2023-04-20T02:43:36;99593.34;;;9.14;47.95
46714;BME280;32445;51.376;10.874;2023-04-20T02:46:37;99593.34;;;9.14;47.98
46714;BME280;32445;51.376;10.874;2023-04-20T02:49:37;99593.38;;;9.12;47.95
46714;BME280;32445;51.376;10.874;2023-04-20T02:52:38;99595.16;;;9.10;47.87
46714;BME280;32445;51.376;10.874;2023-04-20T02:55:38;99601.22;;;9.09;48.16
46714;BME280;32445;51.376;10.874;2023-04-20T02:58:38;99595.19;;;9.09;48.67
46714;BME280;32445;51.376;10.874;2023-04-20T03:01:39;99594.34;;;9.07;48.38
46714;BME280;32445;51.376;10.874;2023-04-20T03:04:39;99594.38;;;9.05;48.19
46714;BME280;32445;51.376;10.874;2023-04-20T03:07:39;99601.31;;;9.05;47.99
46714;BME280;32445;51.376;10.874;2023-04-20T03:10:40;99595.28;;;9.04;48.12
46714;BME280;32445;51.376;10.874;2023-04-20T03:13:40;99593.59;;;9.02;48.52
46714;BME280;32445;51.376;10.874;2023-04-20T03:16:41;99599.66;;;9.00;47.83
46714;BME280;32445;51.376;10.874;2023-04-20T03:19:41;99597.13;;;8.97;48.32
46714;BME280;32445;51.376;10.874;2023-04-20T03:22:41;99604.94;;;8.96;47.70
46714;BME280;32445;51.376;10.874;2023-04-20T03:25:42;99600.69;;;8.92;48.13
46714;BME280;32445;51.376;10.874;2023-04-20T03:28:42;99596.41;;;8.89;47.90
46714;BME280;32445;51.376;10.874;2023-04-20T03:31:43;99603.31;;;8.89;47.67
46714;BME280;32445;51.376;10.874;2023-04-20T03:34:43;99599.03;;;8.88;47.84
46714;BME280;32445;51.376;10.874;2023-04-20T03:37:43;99597.34;;;8.85;47.77
46714;BME280;32445;51.376;10.874;2023-04-20T03:40:44;99599.94;;;8.83;48.15
46714;BME280;32445;51.376;10.874;2023-04-20T03:43:45;99599.13;;;8.81;48.40
46714;BME280;32445;51.376;10.874;2023-04-20T03:46:45;99593.13;;;8.79;48.47
46714;BME280;32445;51.376;10.874;2023-04-20T03:49:45;99594.88;;;8.79;47.89
46714;BME280;32445;51.376;10.874;2023-04-20T03:52:46;99595.72;;;8.78;48.32
46714;BME280;32445;51.376;10.874;2023-04-20T03:55:46;99600.06;;;8.77;48.10
46714;BME280;32445;51.376;10.874;2023-04-20T03:58:46;99604.41;;;8.77;48.49
46714;BME280;32445;51.376;10.874;2023-04-20T04:01:47;99595.78;;;8.75;48.38
46714;BME280;32445;51.376;10.874;2023-04-20T04:04:47;99601.81;;;8.75;48.38
46714;BME280;32445;51.376;10.874;2023-04-20T04:07:48;99600.13;;;8.74;48.60
46714;BME280;32445;51.376;10.874;2023-04-20T04:10:48;99604.44;;;8.74;48.74
46714;BME280;32445;51.376;10.874;2023-04-20T04:13:48;99613.06;;;8.74;48.48
46714;BME280;32445;51.376;10.874;2023-04-20T04:16:49;99607.03;;;8.72;48.68
46714;BME280;32445;51.376;10.874;2023-04-20T04:19:49;99601.03;;;8.72;48.57
46714;BME280;32445;51.376;10.874;2023-04-20T04:22:50;99607.94;;;8.71;48.83
46714;BME280;32445;51.376;10.874;2023-04-20T04:25:51;99601.06;;;8.70;48.53
46714;BME280;32445;51.376;10.874;2023-04-20T04:28:51;99602.78;;;8.71;48.97
46714;BME280;32445;51.376;10.874;2023-04-20T04:31:52;99607.06;;;8.71;48.34
46714;BME280;32445;51.376;10.874;2023-04-20T04:34:53;99611.41;;;8.70;48.52
46714;BME280;32445;51.376;10.874;2023-04-20T04:37:54;99609.69;;;8.69;48.99
46714;BME280;32445;51.376;10.874;2023-04-20T04:40:54;99615.72;;;8.70;49.28
46714;BME280;32445;51.376;10.874;2023-04-20T04:43:55;99612.28;;;8.69;48.94
46714;BME280;32445;51.376;10.874;2023-04-20T04:46:58;99612.28;;;8.69;49.00
46714;BME280;32445;51.376;10.874;2023-04-20T04:49:58;99607.13;;;8.68;48.91
46714;BME280;32445;51.376;10.874;2023-04-20T04:53:01;99615.72;;;8.68;49.21
46714;BME280;32445;51.376;10.874;2023-04-20T04:56:02;99626.09;;;8.68;48.86
46714;BME280;32445;51.376;10.874;2023-04-20T04:59:02;99627.00;;;8.67;49.29
46714;BME280;32445;51.376;10.874;2023-04-20T05:02:03;99630.41;;;8.68;49.05
46714;BME280;32445;51.376;10.874;2023-04-20T05:05:03;99621.81;;;8.67;49.29
46714;BME280;32445;51.376;10.874;2023-04-20T05:08:04;99632.13;;;8.69;49.50
46714;BME280;32445;51.376;10.874;2023-04-20T05:11:04;99631.25;;;8.68;49.52
46714;BME280;32445;51.376;10.874;2023-04-20T05:14:05;99626.09;;;8.68;49.37
46714;BME280;32445;51.376;10.874;2023-04-20T05:17:05;99633.84;;;8.68;49.21
46714;BME280;32445;51.376;10.874;2023-04-20T05:20:06;99634.72;;;8.69;49.60
46714;BME280;32445;51.376;10.874;2023-04-20T05:23:09;99633.88;;;8.66;49.59
46714;BME280;32445;51.376;10.874;2023-04-20T05:26:09;99642.50;;;8.67;49.30
46714;BME280;32445;51.376;10.874;2023-04-20T05:29:10;99636.44;;;8.68;50.27
46714;BME280;32445;51.376;10.874;2023-04-20T05:32:10;99643.34;;;8.68;49.62
46714;BME280;32445;51.376;10.874;2023-04-20T05:35:10;99636.44;;;8.68;49.40
46714;BME280;32445;51.376;10.874;2023-04-20T05:38:11;99634.69;;;8.70;50.20
46714;BME280;32445;51.376;10.874;2023-04-20T05:41:11;99647.63;;;8.70;49.75
46714;BME280;32445;51.376;10.874;2023-04-20T05:44:12;99648.44;;;8.72;49.59
46714;BME280;32445;51.376;10.874;2023-04-20T05:47:12;99649.28;;;8.74;49.73
46714;BME280;32445;51.376;10.874;2023-04-20T05:50:12;99648.41;;;8.75;50.06
46714;BME280;32445;51.376;10.874;2023-04-20T05:53:13;99651.00;;;8.77;50.03
46714;BME280;32445;51.376;10.874;2023-04-20T05:56:13;99654.41;;;8.79;49.97
46714;BME280;32445;51.376;10.874;2023-04-20T05:59:14;99652.63;;;8.81;50.34
46714;BME280;32445;51.376;10.874;2023-04-20T06:02:16;99659.47;;;8.83;50.56
46714;BME280;32445;51.376;10.874;2023-04-20T06:05:16;99660.34;;;8.84;50.46
46714;BME280;32445;51.376;10.874;2023-04-20T06:08:16;99660.34;;;8.84;50.26
46714;BME280;32445;51.376;10.874;2023-04-20T06:11:18;99668.06;;;8.87;50.34
46714;BME280;32445;51.376;10.874;2023-04-20T06:14:21;99665.47;;;8.87;50.37
46714;BME280;32445;51.376;10.874;2023-04-20T06:17:21;99665.47;;;8.89;50.26
46714;BME280;32445;51.376;10.874;2023-04-20T06:20:22;99670.63;;;8.89;50.33
46714;BME280;32445;51.376;10.874;2023-04-20T06:23:22;99668.84;;;8.91;50.77
46714;BME280;32445;51.376;10.874;2023-04-20T06:26:23;99674.00;;;8.92;50.55
46714;BME280;32445;51.376;10.874;2023-04-20T06:29:24;99674.88;;;8.93;50.18
46714;BME280;32445;51.376;10.874;2023-04-20T06:32:24;99683.50;;;8.93;50.39
46714;BME280;32445;51.376;10.874;2023-04-20T06:35:25;99685.16;;;8.97;50.25
46714;BME280;32445;51.376;10.874;2023-04-20T06:38:25;99684.25;;;9.00;50.60
46714;BME280;32445;51.376;10.874;2023-04-20T06:41:26;99691.13;;;9.01;50.01
46714;BME280;32445;51.376;10.874;2023-04-20T06:44:26;99680.75;;;9.01;50.21
46714;BME280;32445;51.376;10.874;2023-04-20T06:47:26;99693.69;;;9.03;49.60
46714;BME280;32445;51.376;10.874;2023-04-20T06:50:30;99694.56;;;9.03;49.84
46714;BME280;32445;51.376;10.874;2023-04-20T06:53:31;99692.78;;;9.05;50.42
46714;BME280;32445;51.376;10.874;2023-04-20T06:56:31;99681.56;;;9.06;50.53
46714;BME280;32445;51.376;10.874;2023-04-20T06:59:32;99687.56;;;9.10;50.54
46714;BME280;32445;51.376;10.874;2023-04-20T07:02:41;99686.66;;;9.11;50.86
46714;BME280;32445;51.376;10.874;2023-04-20T07:05:42;99676.19;;;9.15;50.21
46714;BME280;32445;51.376;10.874;2023-04-20T07:08:42;99689.97;;;9.19;50.34
46714;BME280;32445;51.376;10.874;2023-04-20T07:11:43;99678.06;;;9.09;50.67
46714;BME280;32445;51.376;10.874;2023-04-20T07:14:43;99683.25;;;9.09;51.20
46714;BME280;32445;51.376;10.874;2023-04-20T07:17:43;99684.94;;;9.11;51.24
46714;BME280;32445;51.376;10.874;2023-04-20T07:20:43;99684.78;;;9.19;50.77
46714;BME280;32445;51.376;10.874;2023-04-20T07:23:44;99689.91;;;9.22;51.05
46714;BME280;32445;51.376;10.874;2023-04-20T07:26:44;99689.06;;;9.22;50.84
46714;BME280;32445;51.376;10.874;2023-04-20T07:29:45;99691.53;;;9.28;51.21
46714;BME280;32445;51.376;10.874;2023-04-20T07:32:45;99692.28;;;9.34;50.81
46714;BME280;32445;51.376;10.874;2023-04-20T07:35:45;99693.91;;;9.40;50.56
46714;BME280;32445;51.376;10.874;2023-04-20T07:38:46;99696.38;;;9.46;51.08
46714;BME280;32445;51.376;10.874;2023-04-20T07:41:46;99703.16;;;9.53;51.04
46714;BME280;32445;51.376;10.874;2023-04-20T07:44:47;99699.63;;;9.58;50.35
46714;BME280;32445;51.376;10.874;2023-04-20T07:47:47;99704.69;;;9.64;50.31
46714;BME280;32445;51.376;10.874;2023-04-20T07:50:50;99714.97;;;9.68;50.85
46714;BME280;32445;51.376;10.874;2023-04-20T07:53:50;99713.22;;;9.70;50.26
46714;BME280;32445;51.376;10.874;2023-04-20T07:56:51;99716.63;;;9.73;50.12
46714;BME280;32445;51.376;10.874;2023-04-20T07:59:52;99720.84;;;9.77;50.38
46714;BME280;32445;51.376;10.874;2023-04-20T08:02:52;99723.47;;;9.75;50.07
46714;BME280;32445;51.376;10.874;2023-04-20T08:05:53;99726.94;;;9.76;50.13
46714;BME280;32445;51.376;10.874;2023-04-20T08:08:53;99714.81;;;9.78;49.89
46714;BME280;32445;51.376;10.874;2023-04-20T08:11:54;99714.75;;;9.79;49.95
46714;BME280;32445;51.376;10.874;2023-04-20T08:14:54;99713.84;;;9.82;49.93
46714;BME280;32445;51.376;10.874;2023-04-20T08:17:59;99711.16;;;9.86;50.14
46714;BME280;32445;51.376;10.874;2023-04-20T08:20:59;99712.75;;;9.94;50.18
46714;BME280;32445;51.376;10.874;2023-04-20T08:23:59;99701.44;;;9.98;49.89
46714;BME280;32445;51.376;10.874;2023-04-20T08:27:00;99713.38;;;10.05;49.52
46714;BME280;32445;51.376;10.874;2023-04-20T08:30:01;99716.75;;;10.10;49.66
46714;BME280;32445;51.376;10.874;2023-04-20T08:33:03;99713.19;;;10.16;49.09
46714;BME280;32445;51.376;10.874;2023-04-20T08:36:03;99716.53;;;10.19;49.99
46714;BME280;32445;51.376;10.874;2023-04-20T08:39:10;99709.59;;;10.21;50.57
46714;BME280;32445;51.376;10.874;2023-04-20T08:42:11;99710.31;;;10.28;49.94
46714;BME280;32445;51.376;10.874;2023-04-20T08:45:11;99706.75;;;10.34;49.21
46714;BME280;32445;51.376;10.874;2023-04-20T08:48:12;99698.88;;;10.38;49.48
46714;BME280;32445;51.376;10.874;2023-04-20T08:51:14;99700.50;;;10.43;49.23
46714;BME280;32445;51.376;10.874;2023-04-20T08:54:14;99699.44;;;10.51;49.04
46714;BME280;32445;51.376;10.874;2023-04-20T08:57:15;99703.59;;;10.59;48.24
46714;BME280;32445;51.376;10.874;2023-04-20T09:00:16;99705.16;;;10.66;48.98
46714;BME280;32445;51.376;10.874;2023-04-20T09:03:16;99702.44;;;10.72;48.66
46714;BME280;32445;51.376;10.874;2023-04-20T09:06:17;99709.25;;;10.78;48.39
46714;BME280;32445;51.376;10.874;2023-04-20T09:09:19;99707.50;;;10.78;48.67
46714;BME280;32445;51.376;10.874;2023-04-20T09:12:20;99716.06;;;10.82;47.92
46714;BME280;32445;51.376;10.874;2023-04-20T09:15:27;99717.75;;;10.83;48.40
46714;BME280;32445;51.376;10.874;2023-04-20T09:18:28;99723.72;;;10.88;48.10
46714;BME280;32445;51.376;10.874;2023-04-20T09:21:28;99714.97;;;10.92;47.71
46714;BME280;32445;51.376;10.874;2023-04-20T09:24:31;99717.44;;;10.97;48.01
46714;BME280;32445;51.376;10.874;2023-04-20T09:27:32;99719.88;;;11.03;47.65
46714;BME280;32445;51.376;10.874;2023-04-20T09:30:40;99718.00;;;11.10;47.92
46714;BME280;32445;51.376;10.874;2023-04-20T09:33:41;99714.38;;;11.15;47.00
46714;BME280;32445;51.376;10.874;2023-04-20T09:36:43;99704.66;;;11.23;47.49
46714;BME280;32445;51.376;10.874;2023-04-20T09:39:44;99707.84;;;11.33;47.34
46714;BME280;32445;51.376;10.874;2023-04-20T09:42:46;99705.91;;;11.41;47.28
46714;BME280;32445;51.376;10.874;2023-04-20T09:45:47;99701.41;;;11.48;47.25
46714;BME280;32445;51.376;10.874;2023-04-20T09:48:48;99699.56;;;11.53;47.34
46714;BME280;32445;51.376;10.874;2023-04-20T09:51:49;99701.19;;;11.56;47.86
46714;BME280;32445;51.376;10.874;2023-04-20T09:54:50;99691.41;;;11.66;47.29
46714;BME280;32445;51.376;10.874;2023-04-20T09:57:51;99697.16;;;11.77;46.76
46714;BME280;32445;51.376;10.874;2023-04-20T10:00:52;99696.00;;;11.87;46.62
46714;BME280;32445;51.376;10.874;2023-04-20T10:03:53;99693.97;;;11.99;46.25
46714;BME280;32445;51.376;10.874;2023-04-20T10:06:54;99696.44;;;12.03;45.73
46714;BME280;32445;51.376;10.874;2023-04-20T10:13:04;99689.13;;;12.16;45.93
46714;BME280;32445;51.376;10.874;2023-04-20T10:16:04;99690.69;;;12.22;45.90
46714;BME280;32445;51.376;10.874;2023-04-20T10:19:16;99693.91;;;12.30;46.05
46714;BME280;32445;51.376;10.874;2023-04-20T10:22:28;99696.44;;;12.33;45.62
46714;BME280;32445;51.376;10.874;2023-04-20T10:25:32;99691.00;;;12.41;45.73
46714;BME280;32445;51.376;10.874;2023-04-20T10:28:40;99689.91;;;12.48;45.41
46714;BME280;32445;51.376;10.874;2023-04-20T10:31:41;99688.78;;;12.57;45.15
46714;BME280;32445;51.376;10.874;2023-04-20T10:34:41;99683.47;;;12.60;45.06
46714;BME280;32445;51.376;10.874;2023-04-20T10:37:49;99675.41;;;12.68;45.11
46714;BME280;32445;51.376;10.874;2023-04-20T10:40:50;99678.56;;;12.77;44.83
46714;BME280;32445;51.376;10.874;2023-04-20T10:43:50;99681.78;;;12.86;44.53
46714;BME280;32445;51.376;10.874;2023-04-20T10:46:51;99678.19;;;12.90;44.64
46714;BME280;32445;51.376;10.874;2023-04-20T10:49:51;99683.28;;;12.93;44.62
46714;BME280;32445;51.376;10.874;2023-04-20T10:52:52;99676.34;;;12.92;44.05
46714;BME280;32445;51.376;10.874;2023-04-20T10:55:59;99684.00;;;12.96;44.47
46714;BME280;32445;51.376;10.874;2023-04-20T10:59:05;99679.63;;;12.98;44.38
46714;BME280;32445;51.376;10.874;2023-04-20T11:02:07;99666.66;;;12.97;44.15
46714;BME280;32445;51.376;10.874;2023-04-20T11:05:10;99656.16;;;12.98;44.24
46714;BME280;32445;51.376;10.874;2023-04-20T11:08:11;99650.63;;;13.08;44.96
46714;BME280;32445;51.376;10.874;2023-04-20T11:11:19;99653.63;;;13.22;44.61
46714;BME280;32445;51.376;10.874;2023-04-20T11:14:20;99656.69;;;13.35;44.84
46714;BME280;32445;51.376;10.874;2023-04-20T11:17:35;99652.56;;;13.53;44.87
46714;BME280;32445;51.376;10.874;2023-04-20T11:20:37;99650.03;;;13.75;43.83
46714;BME280;32445;51.376;10.874;2023-04-20T11:23:49;99643.28;;;13.93;43.42
46714;BME280;32445;51.376;10.874;2023-04-20T11:26:50;99653.47;;;13.99;43.08
46714;BME280;32445;51.376;10.874;2023-04-20T11:29:57;99649.06;;;14.01;43.08
46714;BME280;32445;51.376;10.874;2023-04-20T11:32:58;99646.84;;;14.14;43.25
46714;BME280;32445;51.376;10.874;2023-04-20T11:35:59;99642.06;;;14.26;43.07
46714;BME280;32445;51.376;10.874;2023-04-20T11:39:07;99645.09;;;14.37;42.38
46714;BME280;32445;51.376;10.874;2023-04-20T11:42:24;99653.44;;;14.45;42.62
46714;BME280;32445;51.376;10.874;2023-04-20T11:45:25;99652.22;;;14.54;42.20
46714;BME280;32445;51.376;10.874;2023-04-20T11:48:30;99651.97;;;14.62;41.48
46714;BME280;32445;51.376;10.874;2023-04-20T11:51:31;99648.19;;;14.69;41.50
46714;BME280;32445;51.376;10.874;2023-04-20T11:54:31;99635.97;;;14.69;41.33
46714;BME280;32445;51.376;10.874;2023-04-20T11:57:34;99638.53;;;14.71;41.40
46714;BME280;32445;51.376;10.874;2023-04-20T12:00:34;99635.69;;;14.77;41.75
46714;BME280;32445;51.376;10.874;2023-04-20T12:03:40;99632.88;;;14.82;41.11
46714;BME280;32445;51.376;10.874;2023-04-20T12:06:40;99624.28;;;14.78;41.34
46714;BME280;32445;51.376;10.874;2023-04-20T12:09:41;99622.34;;;14.83;41.23
46714;BME280;32445;51.376;10.874;2023-04-20T12:12:41;99625.81;;;14.84;40.95
46714;BME280;32445;51.376;10.874;2023-04-20T12:15:42;99621.56;;;14.81;40.90
46714;BME280;32445;51.376;10.874;2023-04-20T12:18:42;99617.19;;;14.82;40.93
46714;BME280;32445;51.376;10.874;2023-04-20T12:21:42;99621.81;;;14.75;40.81
46714;BME280;32445;51.376;10.874;2023-04-20T12:24:43;99628.13;;;14.69;40.97
46714;BME280;32445;51.376;10.874;2023-04-20T12:27:43;99629.25;;;14.64;41.08
46714;BME280;32445;51.376;10.874;2023-04-20T12:30:44;99631.00;;;14.63;41.23
46714;BME280;32445;51.376;10.874;2023-04-20T12:33:44;99630.19;;;14.61;41.28
46714;BME280;32445;51.376;10.874;2023-04-20T12:36:44;99627.63;;;14.60;40.91
46714;BME280;32445;51.376;10.874;2023-04-20T12:39:45;99618.13;;;14.59;41.39
46714;BME280;32445;51.376;10.874;2023-04-20T12:42:45;99628.84;;;14.51;41.04
46714;BME280;32445;51.376;10.874;2023-04-20T12:45:45;99622.06;;;14.47;41.28
46714;BME280;32445;51.376;10.874;2023-04-20T12:48:47;99627.66;;;14.38;41.33
46714;BME280;32445;51.376;10.874;2023-04-20T12:51:47;99620.84;;;14.33;41.37
46714;BME280;32445;51.376;10.874;2023-04-20T12:54:48;99613.97;;;14.31;41.35
46714;BME280;32445;51.376;10.874;2023-04-20T12:57:49;99608.88;;;14.28;41.83
46714;BME280;32445;51.376;10.874;2023-04-20T13:00:49;99611.50;;;14.28;41.49
46714;BME280;32445;51.376;10.874;2023-04-20T13:03:50;99601.19;;;14.25;41.39
46714;BME280;32445;51.376;10.874;2023-04-20T13:06:51;99601.25;;;14.23;42.01
46714;BME280;32445;51.376;10.874;2023-04-20T13:09:51;99598.69;;;14.22;42.01
46714;BME280;32445;51.376;10.874;2023-04-20T13:12:51;99588.19;;;14.23;41.94
46714;BME280;32445;51.376;10.874;2023-04-20T13:15:52;99581.00;;;14.28;42.23
46714;BME280;32445;51.376;10.874;2023-04-20T13:18:53;99582.78;;;14.28;41.84
46714;BME280;32445;51.376;10.874;2023-04-20T13:21:53;99576.88;;;14.23;41.79
46714;BME280;32445;51.376;10.874;2023-04-20T13:24:54;99576.94;;;14.21;42.17
46714;BME280;32445;51.376;10.874;2023-04-20T13:27:54;99570.81;;;14.22;41.94
46714;BME280;32445;51.376;10.874;2023-04-20T13:30:55;99558.78;;;14.18;42.04
46714;BME280;32445;51.376;10.874;2023-04-20T13:33:56;99557.06;;;14.18;41.85
46714;BME280;32445;51.376;10.874;2023-04-20T13:36:56;99555.47;;;14.14;42.45
46714;BME280;32445;51.376;10.874;2023-04-20T13:39:58;99564.28;;;14.12;42.51
46714;BME280;32445;51.376;10.874;2023-04-20T13:42:58;99566.94;;;14.10;42.80
46714;BME280;32445;51.376;10.874;2023-04-20T13:45:58;99572.16;;;14.10;42.59
46714;BME280;32445;51.376;10.874;2023-04-20T13:48:58;99559.25;;;14.07;42.71
46714;BME280;32445;51.376;10.874;2023-04-20T13:51:59;99555.06;;;14.03;42.95
46714;BME280;32445;51.376;10.874;2023-04-20T13:54:59;99553.53;;;13.97;43.00
46714;BME280;32445;51.376;10.874;2023-04-20T13:58:00;99551.06;;;13.94;42.98
46714;BME280;32445;51.376;10.874;2023-04-20T14:01:06;99548.56;;;13.91;43.08
46714;BME280;32445;51.376;10.874;2023-04-20T14:04:08;99558.19;;;13.89;42.73
46714;BME280;32445;51.376;10.874;2023-04-20T14:07:09;99545.16;;;13.89;42.58
46714;BME280;32445;51.376;10.874;2023-04-20T14:10:09;99546.06;;;13.88;42.71
46714;BME280;32445;51.376;10.874;2023-04-20T14:13:09;99543.50;;;13.87;42.62
46714;BME280;32445;51.376;10.874;2023-04-20T14:16:11;99531.44;;;13.84;42.62
46714;BME280;32445;51.376;10.874;2023-04-20T14:19:12;99541.97;;;13.81;43.07
46714;BME280;32445;51.376;10.874;2023-04-20T14:22:13;99533.19;;;13.83;43.05
46714;BME280;32445;51.376;10.874;2023-04-20T14:25:13;99534.97;;;13.83;42.92
46714;BME280;32445;51.376;10.874;2023-04-20T14:28:14;99544.50;;;13.84;42.95
46714;BME280;32445;51.376;10.874;2023-04-20T14:31:15;99532.22;;;13.86;42.79
46714;BME280;32445;51.376;10.874;2023-04-20T14:34:16;99531.31;;;13.87;42.48
46714;BME280;32445;51.376;10.874;2023-04-20T14:37:16;99537.50;;;13.84;42.28
46714;BME280;32445;51.376;10.874;2023-04-20T14:40:17;99542.84;;;13.81;42.16
46714;BME280;32445;51.376;10.874;2023-04-20T14:43:17;99535.91;;;13.80;42.34
46714;BME280;32445;51.376;10.874;2023-04-20T14:46:18;99548.97;;;13.80;42.57
46714;BME280;32445;51.376;10.874;2023-04-20T14:49:18;99552.41;;;13.81;42.10
46714;BME280;32445;51.376;10.874;2023-04-20T14:52:19;99551.88;;;13.73;42.58
46714;BME280;32445;51.376;10.874;2023-04-20T14:55:20;99558.19;;;13.67;42.33
46714;BME280;32445;51.376;10.874;2023-04-20T14:58:24;99554.09;;;13.60;42.58
46714;BME280;32445;51.376;10.874;2023-04-20T15:01:26;99561.19;;;13.56;42.84
46714;BME280;32445;51.376;10.874;2023-04-20T15:04:26;99559.59;;;13.52;42.75
46714;BME280;32445;51.376;10.874;2023-04-20T15:07:26;99569.19;;;13.52;42.85
46714;BME280;32445;51.376;10.874;2023-04-20T15:10:27;99569.19;;;13.52;43.08
46714;BME280;32445;51.376;10.874;2023-04-20T15:13:28;99561.31;;;13.53;43.15
46714;BME280;32445;51.376;10.874;2023-04-20T15:16:28;99552.63;;;13.53;43.28
46714;BME280;32445;51.376;10.874;2023-04-20T15:19:28;99555.25;;;13.53;43.20
46714;BME280;32445;51.376;10.874;2023-04-20T15:22:29;99548.31;;;13.52;43.33
46714;BME280;32445;51.376;10.874;2023-04-20T15:25:30;99544.88;;;13.51;43.32
46714;BME280;32445;51.376;10.874;2023-04-20T15:28:30;99540.56;;;13.50;43.65
46714;BME280;32445;51.376;10.874;2023-04-20T15:31:30;99539.81;;;13.46;44.20
46714;BME280;32445;51.376;10.874;2023-04-20T15:34:31;99545.25;;;13.40;44.32
46714;BME280;32445;51.376;10.874;2023-04-20T15:37:31;99550.41;;;13.42;44.30
46714;BME280;32445;51.376;10.874;2023-04-20T15:40:31;99550.47;;;13.40;44.45
46714;BME280;32445;51.376;10.874;2023-04-20T15:43:32;99547.94;;;13.39;44.05
46714;BME280;32445;51.376;10.874;2023-04-20T15:46:32;99556.66;;;13.38;44.27
46714;BME280;32445;51.376;10.874;2023-04-20T15:49:32;99541.91;;;13.37;44.10
46714;BME280;32445;51.376;10.874;2023-04-20T15:52:36;99542.00;;;13.33;44.32
46714;BME280;32445;51.376;10.874;2023-04-20T15:55:37;99542.09;;;13.30;44.27